Terminal Aerodrome Forecast
Issued by NWS

Home | Current Version | Previous Version | Text Only | Print | Product List | Glossary On
Versions: 1 2 3 4 5 6 7 8 9 10 11 12 13 14 15 16 17 18 19 20 21 22 23 24 25 26
130
FTUS43 KLSX 240907 AAA
TAFSUS
TAF AMD
KSUS 240907Z 2409/2506 06010KT 4SM -RA BR OVC005
      TEMPO 2409/2412 1 1/2SM RA BR
     FM241500 09008KT 4SM BR OVC005
     FM242100 12009KT 4SM -SHRA BR VCTS OVC008CB
     FM250100 19008KT P6SM BKN012
     FM250400 26014G25KT P6SM BKN025=

USA.gov is the U.S. government's official web portal to all federal, state and local government web resources and services.